createdAt,value
2018-06-08T04:39:11.773Z,38.00
2018-06-08T04:41:40.179Z,38.00
2018-06-08T04:44:08.649Z,35.53
2018-06-08T04:46:37.110Z,35.23
2018-06-08T04:49:05.538Z,36.67
2018-06-08T04:51:34.374Z,37.33
2018-06-08T04:54:02.727Z,38.43
2018-06-08T04:56:32.098Z,36.93
2018-06-08T04:59:00.568Z,38.80
2018-06-08T05:01:29.615Z,36.40
2018-06-08T05:03:58.097Z,38.40
2018-06-08T05:06:26.901Z,38.27
2018-06-08T05:08:55.738Z,37.53
2018-06-08T05:11:24.647Z,38.97
2018-06-08T05:13:53.442Z,36.67
2018-06-08T05:16:22.111Z,38.80
2018-06-08T05:18:50.738Z,38.57
2018-06-08T05:21:19.298Z,37.07
2018-06-08T05:23:47.714Z,38.37
2018-06-08T05:26:16.574Z,38.20
2018-06-08T05:28:45.782Z,38.33
2018-06-08T05:31:14.530Z,37.97
2018-06-08T05:33:43.109Z,40.17
2018-06-08T05:36:12.047Z,38.40
2018-06-08T05:38:41.502Z,39.07
2018-06-08T05:41:12.591Z,39.10
2018-06-08T05:43:41.633Z,41.47
2018-06-08T05:46:10.617Z,42.13
2018-06-08T05:48:39.707Z,43.30
2018-06-08T05:51:09.928Z,46.30
2018-06-08T05:53:39.223Z,44.17
2018-06-08T05:56:08.032Z,41.10
2018-06-08T05:58:37.863Z,43.83
2018-06-08T06:01:07.345Z,45.63
2018-06-08T06:03:38.391Z,45.00
2018-06-08T06:06:06.918Z,44.83
2018-06-08T06:08:38.898Z,45.00
2018-06-08T06:11:07.686Z,46.27
2018-06-08T06:13:37.759Z,46.37
2018-06-08T06:16:06.412Z,48.87
2018-06-08T06:18:47.432Z,46.63
2018-06-08T06:21:15.820Z,46.67
2018-06-08T06:23:44.289Z,46.13
2018-06-08T06:26:12.983Z,45.90
2018-06-08T06:28:42.111Z,47.27
2018-06-08T06:31:13.708Z,49.87
2018-06-08T06:33:43.567Z,49.60
2018-06-08T06:36:12.398Z,52.17
2018-06-08T06:38:45.510Z,50.83
2018-06-08T06:44:07.249Z,50.60
2018-06-08T06:46:35.662Z,49.30
2018-06-08T06:58:19.008Z,50.90
2018-06-08T07:00:47.513Z,54.73
2018-06-08T07:03:16.935Z,43.97
2018-06-08T07:05:45.542Z,46.90
2018-06-08T07:08:18.877Z,45.40
2018-06-08T07:10:47.388Z,45.77
2018-06-08T07:13:15.843Z,43.73
2018-06-08T07:15:44.216Z,41.97
2018-06-08T07:18:12.581Z,41.97
2018-06-08T07:20:40.926Z,40.30
2018-06-08T07:23:09.372Z,41.43
2018-06-08T07:25:37.682Z,42.97
2018-06-08T07:28:06.011Z,40.67
2018-06-08T07:30:34.304Z,42.97
2018-06-08T07:33:02.709Z,37.57
2018-06-08T07:35:31.073Z,39.77
2018-06-08T07:37:59.424Z,38.10
2018-06-08T07:40:27.905Z,36.63
2018-06-08T07:42:56.259Z,34.00
2018-06-08T07:45:24.713Z,35.57
2018-06-08T07:47:53.042Z,33.23
2018-06-08T07:50:21.425Z,30.63
2018-06-08T07:52:49.777Z,31.80
2018-06-08T07:55:18.175Z,29.00
2018-06-08T07:57:46.497Z,29.43
2018-06-08T08:00:14.809Z,31.23
2018-06-08T08:02:43.186Z,30.30
2018-06-08T08:05:11.476Z,29.27
2018-06-08T08:07:39.846Z,26.67
2018-06-08T08:10:08.345Z,24.20
2018-06-08T08:12:36.661Z,27.20
2018-06-08T08:15:05.051Z,27.33
2018-06-08T08:17:33.389Z,29.67
2018-06-08T08:20:01.742Z,27.57
2018-06-08T08:22:30.119Z,29.90
2018-06-08T08:24:58.452Z,29.20
2018-06-08T08:27:26.811Z,28.47
2018-06-08T08:29:55.149Z,28.80
2018-06-08T08:32:23.494Z,27.67
2018-06-08T08:34:51.845Z,27.93
2018-06-08T08:37:20.211Z,28.67
2018-06-08T08:39:48.601Z,28.47
2018-06-08T08:42:17.006Z,27.03
2018-06-08T08:44:45.360Z,28.90
2018-06-08T08:53:12.596Z,36.83
2018-06-08T08:55:49.056Z,39.67
2018-06-08T08:58:22.729Z,40.33
2018-06-08T09:00:54.985Z,37.60
2018-06-08T09:03:50.067Z,39.37
2018-06-08T09:06:35.052Z,35.70
2018-06-08T09:09:07.176Z,35.80
2018-06-08T09:11:53.172Z,38.10
2018-06-08T09:14:28.563Z,34.30
2018-06-08T09:16:57.593Z,36.47
2018-06-08T09:19:27.211Z,39.20
2018-06-08T09:22:07.853Z,39.87
2018-06-08T09:24:42.206Z,40.73
2018-06-08T09:27:11.805Z,38.80
2018-06-08T09:29:40.650Z,41.83
2018-06-08T09:32:13.998Z,40.83
2018-06-08T09:34:49.572Z,44.70
2018-06-08T09:37:18.845Z,45.80
2018-06-08T09:39:49.587Z,46.00
2018-06-08T09:42:21.101Z,48.13
2018-06-08T09:44:49.673Z,45.17
2018-06-08T09:47:19.015Z,44.07
2018-06-08T09:49:51.648Z,42.90
2018-06-08T09:52:20.684Z,39.40
2018-06-08T09:54:49.405Z,38.73
2018-06-08T09:57:20.926Z,38.70
2018-06-08T09:59:50.514Z,13.53
2018-06-08T10:02:19.993Z,6.90
2018-06-08T10:04:51.254Z,5.67
2018-06-08T10:07:21.396Z,5.10
2018-06-08T10:09:51.226Z,6.00
2018-06-08T10:12:22.645Z,5.37
2018-06-08T10:14:54.075Z,3.97
2018-06-08T10:17:34.677Z,5.67
2018-06-08T10:20:06.577Z,6.20
2018-06-08T10:22:35.918Z,5.67
2018-06-08T10:25:04.897Z,4.47
2018-06-08T10:30:26.754Z,5.50
2018-06-08T10:32:57.730Z,4.90
2018-06-08T10:35:27.023Z,7.13
2018-06-08T10:37:56.368Z,5.87
2018-06-08T10:40:26.769Z,6.93
2018-06-08T10:42:56.764Z,4.80
2018-06-08T10:45:27.901Z,5.20
2018-06-08T10:47:59.661Z,4.93
2018-06-08T10:50:31.229Z,5.47
2018-06-08T10:53:00.366Z,3.90
2018-06-08T10:55:31.783Z,6.90
2018-06-08T10:58:02.936Z,5.83
2018-06-08T11:00:56.554Z,5.80
2018-06-08T11:03:27.941Z,4.63
2018-06-08T11:05:57.754Z,6.63
2018-06-08T11:08:28.703Z,4.53
2018-06-08T11:11:08.774Z,4.13
2018-06-08T11:13:41.527Z,4.37
2018-06-08T11:16:17.716Z,4.80
2018-06-08T11:18:54.216Z,3.90
2018-06-08T11:21:25.796Z,2.87
2018-06-08T11:23:54.368Z,3.40
2018-06-08T11:26:29.155Z,4.97
2018-06-08T11:29:06.299Z,5.00
2018-06-08T11:31:37.156Z,3.03
2018-06-08T11:34:07.395Z,4.70
2018-06-08T11:36:39.311Z,4.33
2018-06-08T11:39:12.395Z,5.70
2018-06-08T12:00:00.822Z,3.13
2018-06-08T12:02:35.521Z,5.40
2018-06-08T12:11:16.572Z,3.50
2018-06-08T12:32:18.283Z,4.57
2018-06-08T12:34:48.952Z,4.17
2018-06-08T14:08:31.584Z,4.50
2018-06-08T14:11:19.893Z,3.30
2018-06-08T14:13:58.958Z,4.53
2018-06-08T14:16:44.153Z,4.27
2018-06-08T14:19:35.375Z,3.70
2018-06-08T14:22:04.175Z,3.27
2018-06-08T14:24:36.539Z,4.10
2018-06-08T14:27:05.105Z,3.47
2018-06-08T14:29:33.932Z,3.83
2018-06-08T14:32:02.579Z,3.83
2018-06-08T14:34:30.950Z,4.13
2018-06-08T14:36:59.579Z,3.67
2018-06-08T14:39:29.196Z,2.80
2018-06-08T14:41:57.921Z,3.83
2018-06-08T14:44:26.906Z,4.13
2018-06-08T14:46:55.271Z,3.93
2018-06-08T14:49:23.651Z,3.70
2018-06-08T14:51:52.031Z,4.50
2018-06-08T14:54:20.591Z,4.47
2018-06-08T14:56:48.964Z,5.30
2018-06-08T14:59:17.277Z,4.47
2018-06-08T15:01:45.589Z,4.70
2018-06-08T15:04:14.122Z,3.97
2018-06-08T15:06:42.536Z,4.07
2018-06-08T15:09:11.300Z,3.60
2018-06-08T15:11:40.301Z,3.70
2018-06-08T15:14:08.618Z,4.00
2018-06-08T15:16:36.909Z,5.20
2018-06-08T15:19:06.470Z,4.73
2018-06-08T15:21:34.892Z,4.23
2018-06-08T15:24:03.703Z,6.10
2018-06-08T15:26:32.153Z,4.93
2018-06-08T15:29:00.572Z,5.03
2018-06-08T15:31:28.900Z,4.80
2018-06-08T15:33:57.320Z,5.60
2018-06-08T15:36:31.230Z,4.90
2018-06-08T15:38:59.544Z,4.63
2018-06-08T15:41:28.025Z,5.43
2018-06-08T15:43:56.700Z,5.33
2018-06-08T15:46:25.389Z,5.83
2018-06-08T15:48:53.801Z,5.37
2018-06-08T15:51:22.151Z,5.00
2018-06-08T15:53:50.410Z,3.93
2018-06-08T15:56:18.753Z,4.70
2018-06-08T15:58:47.114Z,5.90
2018-06-08T16:01:15.567Z,4.57
2018-06-08T16:03:44.731Z,6.30
2018-06-08T16:06:13.324Z,5.70
2018-06-08T16:08:41.858Z,33.30
2018-06-08T16:11:10.518Z,34.13
2018-06-08T16:13:39.030Z,35.00
2018-06-08T16:16:07.565Z,38.80
2018-06-08T16:18:36.121Z,39.60
2018-06-08T16:21:05.374Z,36.27
2018-06-08T16:23:33.853Z,37.50
2018-06-08T16:26:03.362Z,39.90
2018-06-08T16:28:32.691Z,41.83
2018-06-08T16:31:01.618Z,42.23
2018-06-08T16:33:30.864Z,43.00
2018-06-08T16:36:01.130Z,41.57
2018-06-08T16:38:29.571Z,42.23
2018-06-08T16:40:58.096Z,43.33
2018-06-08T16:43:26.649Z,41.00
2018-06-08T16:45:55.010Z,40.87
2018-06-08T16:48:23.855Z,41.40
2018-06-08T16:50:52.217Z,41.67
2018-06-08T16:53:20.706Z,40.03
2018-06-08T16:55:49.171Z,43.43
2018-06-08T16:58:17.797Z,41.13
2018-06-08T17:06:54.235Z,47.60
2018-06-08T17:09:23.873Z,49.47
2018-06-08T17:11:53.620Z,47.70
2018-06-08T17:14:32.768Z,48.43
2018-06-08T17:17:17.913Z,47.20
2018-06-08T17:19:47.982Z,50.77
2018-06-08T17:22:17.050Z,52.73
2018-06-08T17:24:49.576Z,51.50
2018-06-08T17:27:25.789Z,53.17
2018-06-08T17:30:12.932Z,51.23
2018-06-08T17:32:47.512Z,55.20
2018-06-08T17:35:27.270Z,57.40
2018-06-08T17:38:11.584Z,57.27
2018-06-08T17:40:40.265Z,53.50
2018-06-08T17:43:13.825Z,56.83
2018-06-08T17:45:45.009Z,54.70
2018-06-08T17:48:16.930Z,53.03
2018-06-08T17:53:41.484Z,54.93
2018-06-08T17:56:17.072Z,53.17
2018-06-08T17:58:52.318Z,55.67
2018-06-08T18:01:30.995Z,57.03
2018-06-08T18:04:20.138Z,58.83
2018-06-08T18:07:05.033Z,57.40
2018-06-08T18:09:49.383Z,57.67
2018-06-08T18:12:38.659Z,60.60
2018-06-08T18:15:50.475Z,62.83
2018-06-08T18:18:56.537Z,61.63
2018-06-08T18:24:28.420Z,62.90
2018-06-08T18:30:55.891Z,68.87
2018-06-08T18:33:25.070Z,66.63
2018-06-08T18:35:55.845Z,69.10
2018-06-08T18:38:25.421Z,67.90
2018-06-08T18:40:57.343Z,69.07
2018-06-08T18:43:26.159Z,68.70
2018-06-08T18:48:49.093Z,66.93
2018-06-08T18:51:18.016Z,69.10
2018-06-08T18:53:50.823Z,65.77
2018-06-08T18:56:22.691Z,66.70
2018-06-08T18:58:51.840Z,66.67
2018-06-08T19:01:20.824Z,68.90
2018-06-08T19:03:50.446Z,65.10
2018-06-08T19:06:19.176Z,64.93
2018-06-08T19:08:47.624Z,63.50
2018-06-08T19:11:15.949Z,65.20
2018-06-08T19:13:45.850Z,65.70
2018-06-08T19:16:14.744Z,64.20
2018-06-08T19:18:43.334Z,59.60
2018-06-08T19:21:11.739Z,60.10
2018-06-08T19:23:40.160Z,62.70
2018-06-08T19:26:08.664Z,60.57
2018-06-08T19:28:36.969Z,62.70
2018-06-08T19:31:09.355Z,63.47
2018-06-08T19:33:37.753Z,62.57
2018-06-08T19:36:06.213Z,62.67
2018-06-08T19:38:35.501Z,69.10
2018-06-08T19:41:03.821Z,65.93
2018-06-08T19:43:32.404Z,70.37
2018-06-08T19:46:00.802Z,72.97
2018-06-08T19:48:30.301Z,72.87
2018-06-08T19:50:59.634Z,77.63
2018-06-08T19:53:41.780Z,74.70
2018-06-08T19:56:12.213Z,74.67
2018-06-08T19:58:41.244Z,72.47
2018-06-08T20:01:09.915Z,75.47
2018-06-08T20:03:38.297Z,71.90
2018-06-08T20:06:06.866Z,69.20
2018-06-08T20:08:37.107Z,73.00
2018-06-08T20:11:06.088Z,71.50
2018-06-08T20:13:42.707Z,68.87
2018-06-08T20:16:24.874Z,67.50
2018-06-08T20:19:02.718Z,69.50
2018-06-08T20:28:24.393Z,66.60
2018-06-08T20:31:02.123Z,67.10
2018-06-08T20:33:32.962Z,69.03
2018-06-08T20:36:05.554Z,69.00
2018-06-08T20:38:55.083Z,64.93
2018-06-08T20:41:25.595Z,63.23
2018-06-08T20:43:56.374Z,65.10
2018-06-08T20:46:35.969Z,60.83
2018-06-08T20:49:07.290Z,60.80
2018-06-08T20:52:22.475Z,60.60
2018-06-08T20:55:11.518Z,60.77
2018-06-08T20:57:56.864Z,65.07
2018-06-08T21:00:25.509Z,62.47
2018-06-08T21:02:54.871Z,63.37
2018-06-08T21:05:24.691Z,60.50
2018-06-08T21:07:54.198Z,60.97
2018-06-08T21:10:28.397Z,64.07
2018-06-08T21:13:13.019Z,65.03
2018-06-08T21:15:53.922Z,62.10
2018-06-08T21:18:26.303Z,63.23
2018-06-08T21:20:54.741Z,62.80
2018-06-08T21:23:24.088Z,65.03
2018-06-08T21:25:54.932Z,65.10
2018-06-08T21:28:24.105Z,61.87
2018-06-08T21:30:53.428Z,64.67
2018-06-08T21:33:22.692Z,63.53
2018-06-08T21:36:01.487Z,62.90
2018-06-08T21:38:35.560Z,63.87
2018-06-08T21:41:11.134Z,62.73
2018-06-08T21:43:50.166Z,64.60
2018-06-08T21:46:20.439Z,64.03
2018-06-08T21:48:49.332Z,67.40
2018-06-08T21:51:18.518Z,64.97
2018-06-08T22:30:59.185Z,69.77
2018-06-08T22:33:36.017Z,73.20
2018-06-08T22:43:48.663Z,74.73
2018-06-08T22:46:21.749Z,73.23
2018-06-08T22:52:21.856Z,75.60
2018-06-08T22:58:12.924Z,73.43
2018-06-08T23:00:41.677Z,72.93
2018-06-08T23:03:10.593Z,70.47
2018-06-08T23:05:39.270Z,76.87
2018-06-08T23:08:13.826Z,72.77
2018-06-08T23:10:50.256Z,76.30
2018-06-08T23:13:18.817Z,74.30
2018-06-08T23:15:47.208Z,79.83
2018-06-08T23:18:15.548Z,82.87
2018-06-08T23:20:43.982Z,81.47
2018-06-08T23:23:12.436Z,80.40
2018-06-08T23:25:40.802Z,75.67
2018-06-08T23:28:09.192Z,80.40
2018-06-08T23:30:37.670Z,77.93
2018-06-08T23:33:06.245Z,78.80
2018-06-08T23:35:36.192Z,80.60
2018-06-08T23:38:04.893Z,76.97
2018-06-08T23:40:33.523Z,80.63
2018-06-08T23:43:02.300Z,75.17
2018-06-08T23:45:31.102Z,82.17
2018-06-08T23:47:59.785Z,78.40
2018-06-08T23:50:28.722Z,78.27
2018-06-08T23:52:57.303Z,82.00
2018-06-08T23:55:29.535Z,77.67
2018-06-08T23:57:58.505Z,78.50
